Time;durP1;ratioP1;P1;durP2;ratioP2;P2;SDS_P1;SDS_P2;PMS_P1;PMS_P2;Temp;Humidity;BMP_temperature;BMP_pressure;BME280_temperature;BME280_humidity;BME280_pressure;Samples;Min_cycle;Max_cycle;Signal;HPM_P1;HPM_P2
2023/08/04 00:00:55;;;;;;;8.93;8.13;;;;;;;26.55;68.23;94278.88;5091828;28;20194;-42
2023/08/04 00:03:22;;;;;;;8.60;7.80;;;;;;;26.52;67.66;94277.56;5091384;28;20652;-44
2023/08/04 00:05:48;;;;;;;9.05;8.15;;;;;;;26.49;68.33;94279.88;5091901;28;20641;-43
2023/08/04 00:08:15;;;;;;;8.32;7.63;;;;;;;26.46;68.56;94275.13;5091748;28;20182;-43
2023/08/04 00:10:42;;;;;;;12.77;8.73;;;;;;;26.45;68.50;94276.16;5091244;28;20282;-43
2023/08/04 00:13:09;;;;;;;10.70;7.85;;;;;;;26.43;68.32;94273.00;5091351;28;20200;-43
2023/08/04 00:15:36;;;;;;;8.18;7.45;;;;;;;26.40;68.21;94282.13;5091339;28;20196;-44
2023/08/04 00:18:04;;;;;;;8.65;7.70;;;;;;;26.35;68.54;94270.81;5091451;28;20188;-42
2023/08/04 00:20:31;;;;;;;9.00;7.78;;;;;;;26.38;68.40;94278.97;5091388;28;20189;-43
2023/08/04 00:22:58;;;;;;;8.52;7.72;;;;;;;26.36;68.49;94282.88;5091546;28;20186;-42
2023/08/04 00:25:25;;;;;;;8.02;7.22;;;;;;;26.30;68.43;94281.25;5091439;28;20185;-43
2023/08/04 00:27:51;;;;;;;9.50;8.10;;;;;;;26.29;68.57;94277.78;5091312;28;20254;-43
2023/08/04 00:30:18;;;;;;;8.32;7.53;;;;;;;26.27;68.64;94280.69;5090858;28;20307;-44
2023/08/04 00:32:47;;;;;;;9.85;8.23;;;;;;;26.26;68.96;94278.31;5091274;28;20650;-44
2023/08/04 00:35:15;;;;;;;12.88;7.97;;;;;;;26.22;68.55;94285.88;5091004;28;20217;-42
2023/08/04 00:37:42;;;;;;;12.43;8.68;;;;;;;26.17;68.96;94277.16;5091456;28;20538;-44
2023/08/04 00:40:09;;;;;;;8.63;7.80;;;;;;;26.18;69.40;94284.78;5091220;28;20190;-44
2023/08/04 00:42:36;;;;;;;8.88;7.97;;;;;;;26.16;68.85;94284.22;5090969;28;20657;-43
2023/08/04 00:45:04;;;;;;;10.70;8.07;;;;;;;26.14;68.97;94281.06;5090885;28;20686;-43
2023/08/04 00:47:35;;;;;;;8.82;8.02;;;;;;;26.14;69.56;94283.66;5091137;28;20189;-45
2023/08/04 00:50:03;;;;;;;10.02;8.20;;;;;;;26.13;69.47;94284.72;5090763;28;20622;-43
2023/08/04 00:52:32;;;;;;;10.48;7.72;;;;;;;26.13;69.23;94292.56;5090807;28;20229;-44
2023/08/04 00:54:59;;;;;;;11.30;7.30;;;;;;;26.06;69.34;94283.31;5091097;28;20205;-44
2023/08/04 00:57:26;;;;;;;8.25;7.25;;;;;;;26.03;69.43;94297.69;5091082;28;20205;-44
2023/08/04 00:59:56;;;;;;;8.73;7.85;;;;;;;25.94;69.78;94281.59;5090688;28;20189;-43
2023/08/04 01:02:23;;;;;;;9.57;8.68;;;;;;;25.98;69.26;94287.94;5090439;28;20649;-45
2023/08/04 01:04:50;;;;;;;11.75;7.75;;;;;;;25.96;69.65;94292.63;5090809;28;20225;-44
2023/08/04 01:07:22;;;;;;;8.80;6.95;;;;;;;25.94;69.43;94291.28;5090378;28;20692;-44
2023/08/04 01:10:03;;;;;;;8.35;7.55;;;;;;;25.93;69.53;94287.88;5090543;28;20661;-43
2023/08/04 01:12:41;;;;;;;8.65;7.60;;;;;;;25.92;69.51;94288.91;5090498;28;20258;-44
2023/08/04 01:15:10;;;;;;;8.10;7.30;;;;;;;25.85;69.81;94277.00;5090197;28;20588;-43
2023/08/04 01:17:37;;;;;;;8.70;7.78;;;;;;;25.85;69.95;94282.25;5090376;28;20272;-43
2023/08/04 01:20:05;;;;;;;8.85;7.22;;;;;;;25.88;69.74;94285.19;5090463;28;20668;-43
2023/08/04 01:22:35;;;;;;;8.75;7.95;;;;;;;25.86;69.98;94286.44;5090167;28;20189;-43
2023/08/04 01:25:03;;;;;;;9.00;7.80;;;;;;;25.84;70.09;94286.72;5089998;28;20193;-43
2023/08/04 01:27:34;;;;;;;11.23;7.88;;;;;;;25.83;70.45;94287.75;5089932;28;20197;-45
2023/08/04 01:30:04;;;;;;;9.13;7.32;;;;;;;25.81;70.43;94281.16;5090302;28;20225;-43
2023/08/04 01:32:31;;;;;;;8.18;7.40;;;;;;;25.77;70.51;94286.06;5090075;28;20193;-43
2023/08/04 01:34:59;;;;;;;8.82;8.02;;;;;;;25.75;70.51;94286.31;5091339;28;20197;-46
2023/08/04 01:37:25;;;;;;;9.30;7.75;;;;;;;25.74;70.76;94297.03;5089989;28;20190;-42
2023/08/04 01:39:54;;;;;;;8.38;7.65;;;;;;;25.73;70.89;94292.81;5090090;28;20186;-44
2023/08/04 01:42:20;;;;;;;8.55;7.75;;;;;;;25.68;71.06;94282.25;5090179;28;20190;-43
2023/08/04 01:44:47;;;;;;;8.70;7.80;;;;;;;25.68;70.94;94293.53;5089895;28;20205;-43
2023/08/04 01:47:14;;;;;;;10.57;8.30;;;;;;;25.63;71.25;94290.84;5089816;28;20194;-43
2023/08/04 01:49:41;;;;;;;10.02;8.43;;;;;;;25.64;71.52;94292.41;5089868;28;20209;-43
2023/08/04 01:52:07;;;;;;;10.13;8.45;;;;;;;25.62;71.51;94296.34;5089844;28;20723;-42
2023/08/04 01:54:34;;;;;;;8.48;7.68;;;;;;;25.62;71.52;94301.56;5089855;28;20186;-41
2023/08/04 01:57:03;;;;;;;10.13;8.48;;;;;;;25.59;71.54;94294.97;5090088;28;20196;-43
2023/08/04 01:59:29;;;;;;;8.50;7.70;;;;;;;25.55;71.84;94301.72;5089682;28;20669;-44
2023/08/04 02:01:56;;;;;;;8.57;7.82;;;;;;;25.55;71.31;94301.72;5089823;28;20186;-44
2023/08/04 02:04:23;;;;;;;9.32;8.38;;;;;;;25.55;71.96;94299.09;5089662;28;20268;-45
2023/08/04 02:06:50;;;;;;;8.68;7.95;;;;;;;25.53;71.98;94304.59;5090057;28;20186;-44
2023/08/04 02:09:16;;;;;;;8.70;7.85;;;;;;;25.52;72.06;94302.22;5089704;28;20220;-44
2023/08/04 02:11:43;;;;;;;9.15;8.32;;;;;;;25.50;71.97;94307.69;5089617;28;20217;-43
2023/08/04 02:14:12;;;;;;;12.70;8.52;;;;;;;25.46;71.78;94303.16;5089406;28;20185;-43
2023/08/04 02:16:39;;;;;;;10.27;7.32;;;;;;;25.47;72.18;94310.78;5089691;28;20194;-45
2023/08/04 02:19:08;;;;;;;10.38;7.85;;;;;;;25.42;72.34;94305.47;5089304;28;20193;-44
2023/08/04 02:21:35;;;;;;;9.20;8.30;;;;;;;25.30;72.20;94294.28;5089845;28;20185;-44
2023/08/04 02:24:02;;;;;;;10.25;8.18;;;;;;;25.40;72.57;94317.22;5089462;28;20778;-43
2023/08/04 02:26:29;;;;;;;14.80;7.43;;;;;;;25.36;72.40;94316.13;5089625;28;20193;-42
2023/08/04 02:28:56;;;;;;;9.82;7.20;;;;;;;25.38;72.37;94319.28;5089854;28;20251;-43
2023/08/04 02:31:26;;;;;;;10.88;8.23;;;;;;;25.36;72.60;94314.28;5089253;28;20605;-44
2023/08/04 02:33:54;;;;;;;10.52;8.13;;;;;;;25.32;72.56;94328.88;5089620;28;20196;-44
2023/08/04 02:36:21;;;;;;;8.30;7.53;;;;;;;25.28;73.10;94327.78;5089419;28;20194;-43
2023/08/04 02:38:48;;;;;;;8.82;7.75;;;;;;;25.21;73.24;94311.41;5092388;28;20258;-43
2023/08/04 02:41:15;;;;;;;8.63;7.78;;;;;;;25.25;73.31;94328.25;5093691;28;20193;-42
2023/08/04 02:43:42;;;;;;;21.35;8.55;;;;;;;25.15;73.62;94315.78;5093937;28;20208;-43
2023/08/04 02:46:10;;;;;;;10.32;9.18;;;;;;;25.18;73.42;94319.75;5093092;28;20232;-46
2023/08/04 02:48:39;;;;;;;11.65;8.25;;;;;;;25.18;73.44;94325.78;5093292;28;20641;-45
2023/08/04 02:51:07;;;;;;;13.35;8.43;;;;;;;25.16;73.50;94330.44;5093198;28;20236;-43
2023/08/04 02:53:35;;;;;;;9.43;8.43;;;;;;;25.16;73.61;94319.97;5093504;28;20509;-46
2023/08/04 02:56:09;;;;;;;9.88;8.50;;;;;;;25.11;73.79;94321.72;5093292;28;20243;-43
2023/08/04 02:58:36;;;;;;;9.43;8.50;;;;;;;25.13;73.94;94327.50;5093298;28;20185;-45
2023/08/04 03:01:03;;;;;;;8.77;7.97;;;;;;;25.10;74.17;94328.78;5092768;28;20198;-44
2023/08/04 03:03:29;;;;;;;9.02;8.13;;;;;;;25.10;74.50;94328.00;5093484;28;20189;-43
2023/08/04 03:05:59;;;;;;;10.60;9.57;;;;;;;24.92;74.88;94310.66;5092990;28;20617;-43
2023/08/04 03:08:26;;;;;;;13.60;10.82;;;;;;;24.99;75.95;94324.38;5092982;28;20190;-44
2023/08/04 03:10:53;;;;;;;14.30;10.32;;;;;;;24.86;77.49;94315.00;5092724;28;20209;-44
2023/08/04 03:13:20;;;;;;;12.27;11.05;;;;;;;24.96;77.36;94323.03;5092891;28;20255;-43
2023/08/04 03:15:47;;;;;;;14.60;11.52;;;;;;;24.94;77.63;94322.47;5093133;28;20185;-44
2023/08/04 03:18:14;;;;;;;12.48;11.27;;;;;;;24.93;77.59;94320.09;5092669;28;20189;-43
2023/08/04 03:20:41;;;;;;;11.10;9.98;;;;;;;24.94;77.54;94325.09;5092842;28;20565;-42
2023/08/04 03:23:09;;;;;;;12.77;9.60;;;;;;;24.91;77.62;94328.16;5093404;28;20188;-45
2023/08/04 03:25:36;;;;;;;12.60;10.52;;;;;;;24.85;77.73;94323.88;5093145;28;20254;-44
2023/08/04 03:28:03;;;;;;;11.93;9.73;;;;;;;24.87;77.74;94324.47;5092353;28;20190;-43
2023/08/04 03:30:30;;;;;;;14.10;10.38;;;;;;;24.88;77.73;94322.63;5091829;28;20354;-44
2023/08/04 03:32:57;;;;;;;13.32;10.30;;;;;;;24.83;78.37;94312.06;5091422;28;20236;-43
2023/08/04 03:35:23;;;;;;;14.35;11.48;;;;;;;24.85;78.63;94315.25;5091127;28;20185;-43
2023/08/04 03:37:51;;;;;;;14.70;10.50;;;;;;;24.84;79.01;94322.31;5091081;28;20660;-44
2023/08/04 03:40:19;;;;;;;12.85;11.50;;;;;;;24.87;78.50;94321.84;5091329;28;20193;-43
2023/08/04 03:42:45;;;;;;;12.57;11.27;;;;;;;24.90;78.45;94329.19;5091042;28;20319;-44
2023/08/04 03:45:12;;;;;;;15.10;10.68;;;;;;;24.93;78.25;94335.78;5091205;28;20599;-45
2023/08/04 03:47:39;;;;;;;13.63;9.75;;;;;;;24.96;78.12;94330.09;5091355;28;20541;-43
2023/08/04 03:50:07;;;;;;;13.77;9.60;;;;;;;24.96;78.22;94330.91;5090715;28;20538;-45
2023/08/04 03:52:34;;;;;;;13.05;10.15;;;;;;;25.00;78.39;94332.00;5091248;28;20222;-44
2023/08/04 03:55:01;;;;;;;11.60;9.63;;;;;;;25.03;77.94;94331.53;5090693;28;20665;-45
2023/08/04 03:57:29;;;;;;;13.00;9.70;;;;;;;24.88;78.21;94312.97;5091520;28;20193;-44
2023/08/04 03:59:56;;;;;;;14.55;10.93;;;;;;;25.01;77.64;94328.34;5090986;28;20205;-43
2023/08/04 04:02:23;;;;;;;16.63;10.93;;;;;;;25.08;77.57;94336.06;5090928;28;20553;-43
2023/08/04 04:04:50;;;;;;;13.90;10.15;;;;;;;25.08;77.26;94340.47;5090767;28;20581;-44
2023/08/04 04:07:16;;;;;;;18.13;10.10;;;;;;;25.13;76.88;94333.56;5090733;28;20585;-43
2023/08/04 04:09:43;;;;;;;13.30;9.57;;;;;;;25.13;76.23;94330.13;5090450;28;20190;-43
2023/08/04 04:12:10;;;;;;;10.50;8.85;;;;;;;25.17;76.05;94336.47;5090387;28;20221;-43
2023/08/04 04:14:38;;;;;;;10.60;9.50;;;;;;;25.20;75.68;94328.94;5090674;28;20189;-43
2023/08/04 04:17:06;;;;;;;16.02;10.45;;;;;;;25.24;75.38;94337.91;5090872;28;20258;-45
2023/08/04 04:19:32;;;;;;;15.65;9.80;;;;;;;25.27;75.56;94342.69;5090537;28;20200;-44
2023/08/04 04:21:59;;;;;;;13.15;9.25;;;;;;;25.30;75.39;94336.16;5091038;28;20562;-43
2023/08/04 04:24:26;;;;;;;16.42;9.65;;;;;;;25.37;75.18;94338.63;5090639;28;20186;-44
2023/08/04 04:26:53;;;;;;;13.32;9.35;;;;;;;25.44;74.70;94339.28;5090539;28;20206;-45
2023/08/04 04:29:19;;;;;;;14.65;9.50;;;;;;;25.51;74.58;94345.91;5090153;28;20194;-45
2023/08/04 04:31:48;;;;;;;14.50;9.32;;;;;;;25.51;74.32;94337.28;5050603;28;1141410;-44
2023/08/04 04:34:14;;;;;;;13.10;9.75;;;;;;;25.57;74.46;94346.03;5091390;28;20189;-43
2023/08/04 04:36:41;;;;;;;11.38;10.18;;;;;;;25.64;73.73;94341.41;5091081;28;20185;-44
2023/08/04 04:39:08;;;;;;;12.32;10.23;;;;;;;25.66;73.55;94349.81;5091131;28;20193;-43
2023/08/04 04:41:35;;;;;;;13.00;9.38;;;;;;;25.71;73.62;94349.88;5091290;28;20258;-44
2023/08/04 04:44:02;;;;;;;10.75;9.63;;;;;;;25.75;73.59;94349.16;5091213;28;20198;-45
2023/08/04 04:46:29;;;;;;;14.10;10.52;;;;;;;25.84;73.27;94352.19;5090875;28;20239;-44
2023/08/04 04:48:57;;;;;;;11.10;9.93;;;;;;;25.89;73.00;94354.09;5090957;28;20589;-44
2023/08/04 04:51:24;;;;;;;12.30;11.00;;;;;;;25.97;72.84;94353.69;5090798;28;20225;-45
2023/08/04 04:53:51;;;;;;;23.38;12.32;;;;;;;26.06;72.81;94349.63;5091260;28;20239;-42
2023/08/04 04:56:17;;;;;;;18.17;12.40;;;;;;;26.12;72.14;94347.84;5090678;28;20189;-42
2023/08/04 04:58:44;;;;;;;13.98;12.45;;;;;;;26.18;71.87;94352.94;5090679;28;20193;-42
2023/08/04 05:01:11;;;;;;;13.77;11.85;;;;;;;26.32;71.92;94350.72;5089878;28;20201;-43
2023/08/04 05:03:37;;;;;;;13.88;12.38;;;;;;;26.58;71.46;94353.69;5090568;28;20186;-42
2023/08/04 05:06:06;;;;;;;15.73;11.82;;;;;;;26.90;70.48;94353.75;5090628;28;20292;-43
2023/08/04 05:08:32;;;;;;;18.13;12.63;;;;;;;27.21;69.03;94352.25;5090313;28;20190;-42
2023/08/04 05:10:59;;;;;;;14.27;11.77;;;;;;;27.42;68.23;94342.72;5090609;28;20238;-44
2023/08/04 05:13:26;;;;;;;14.32;12.52;;;;;;;27.92;67.34;94352.00;5090717;28;20217;-42
2023/08/04 05:15:53;;;;;;;15.90;12.68;;;;;;;28.23;65.87;94358.22;5090516;28;20193;-45
2023/08/04 05:18:20;;;;;;;19.92;11.85;;;;;;;28.55;64.39;94355.50;5090410;28;20227;-44
2023/08/04 05:20:47;;;;;;;13.25;11.85;;;;;;;28.81;63.25;94361.63;5090390;28;20197;-44
2023/08/04 05:23:16;;;;;;;17.25;12.70;;;;;;;29.06;62.68;94362.75;5090312;28;20669;-43
2023/08/04 05:25:43;;;;;;;19.20;14.50;;;;;;;29.18;62.35;94358.03;5090206;28;20190;-45
2023/08/04 05:28:23;;;;;;;17.67;11.88;;;;;;;29.33;62.38;94352.78;5090086;28;20642;-44
2023/08/04 05:30:54;;;;;;;19.75;12.52;;;;;;;29.63;61.27;94362.56;5090187;28;20239;-43
2023/08/04 05:33:21;;;;;;;16.60;13.02;;;;;;;29.85;60.48;94362.25;5090358;28;20217;-45
2023/08/04 05:35:48;;;;;;;15.88;13.10;;;;;;;30.08;60.13;94354.81;5090255;28;20646;-44
2023/08/04 05:38:16;;;;;;;22.92;13.05;;;;;;;30.34;59.14;94359.00;5089961;28;20665;-44
2023/08/04 05:40:45;;;;;;;13.88;12.13;;;;;;;30.50;58.23;94359.75;5090163;28;20242;-45
2023/08/04 05:43:13;;;;;;;19.75;13.75;;;;;;;30.72;57.07;94362.81;5090402;28;20190;-44
2023/08/04 05:45:42;;;;;;;21.95;13.75;;;;;;;30.74;57.03;94362.53;5090563;28;20197;-44
2023/08/04 05:48:09;;;;;;;22.60;11.65;;;;;;;30.81;56.79;94364.91;5089722;28;20196;-43
2023/08/04 05:50:36;;;;;;;21.67;12.50;;;;;;;30.90;56.14;94361.41;5090058;28;20623;-45
2023/08/04 05:53:03;;;;;;;17.67;13.02;;;;;;;30.95;55.67;94371.94;5089972;28;20706;-43
2023/08/04 05:55:34;;;;;;;16.60;10.95;;;;;;;30.97;55.72;94356.63;5090099;28;20202;-44
2023/08/04 05:58:02;;;;;;;15.95;13.40;;;;;;;31.28;54.64;94371.50;5090118;28;20668;-45
2023/08/04 06:00:29;;;;;;;12.73;10.98;;;;;;;31.53;54.54;94365.25;5088297;28;20547;-49
2023/08/04 06:02:56;;;;;;;21.60;11.68;;;;;;;31.80;53.91;94367.41;5090307;28;20625;-43
2023/08/04 06:05:24;;;;;;;14.32;12.82;;;;;;;31.98;53.25;94370.16;5089905;28;20181;-45
2023/08/04 06:07:51;;;;;;;21.98;12.27;;;;;;;32.17;52.88;94372.88;5090013;28;20197;-44
2023/08/04 06:10:19;;;;;;;16.40;10.75;;;;;;;32.36;51.99;94366.84;5089583;28;20231;-44
2023/08/04 06:12:47;;;;;;;14.23;11.82;;;;;;;32.57;51.21;94362.16;5090000;28;20217;-45
2023/08/04 06:15:14;;;;;;;16.88;12.05;;;;;;;32.61;50.71;94371.09;5089359;28;20197;-44
2023/08/04 06:17:41;;;;;;;17.67;12.77;;;;;;;32.55;50.67;94369.56;5089810;28;20641;-43
2023/08/04 06:20:09;;;;;;;13.13;11.82;;;;;;;32.55;50.63;94373.00;5089419;28;20258;-44
2023/08/04 06:22:37;;;;;;;16.67;11.45;;;;;;;32.58;51.14;94366.38;5089578;28;20182;-44
2023/08/04 06:25:04;;;;;;;16.23;12.57;;;;;;;32.59;51.03;94367.94;5089532;28;20201;-45
2023/08/04 06:27:31;;;;;;;15.98;11.85;;;;;;;32.72;50.00;94367.22;5089825;28;20550;-43
2023/08/04 06:30:00;;;;;;;14.25;11.82;;;;;;;32.90;49.89;94371.78;5089300;28;20232;-43
2023/08/04 06:32:28;;;;;;;18.65;11.50;;;;;;;33.02;49.66;94365.28;5089797;28;20296;-43
2023/08/04 06:34:55;;;;;;;13.15;11.80;;;;;;;33.13;49.16;94375.47;5089857;28;20182;-45
2023/08/04 06:37:21;;;;;;;19.70;12.27;;;;;;;33.27;48.58;94369.44;5089165;28;20611;-43
2023/08/04 06:39:49;;;;;;;21.52;13.07;;;;;;;33.07;49.31;94376.59;5089844;28;20645;-46
2023/08/04 06:42:16;;;;;;;18.13;11.35;;;;;;;32.90;49.09;94370.97;5089571;28;20189;-45
2023/08/04 06:44:43;;;;;;;18.00;12.40;;;;;;;32.71;49.37;94369.09;5089446;28;20189;-44
2023/08/04 06:47:11;;;;;;;15.65;12.13;;;;;;;32.58;49.93;94367.16;5089276;28;20616;-44
2023/08/04 06:49:37;;;;;;;17.52;11.43;;;;;;;32.73;49.84;94366.19;5089486;28;20189;-43
2023/08/04 06:52:05;;;;;;;13.23;11.48;;;;;;;32.87;49.12;94361.75;5089310;28;20206;-44
2023/08/04 06:54:32;;;;;;;15.88;11.05;;;;;;;32.85;49.44;94355.94;5089739;28;20185;-44
2023/08/04 06:56:59;;;;;;;15.48;11.25;;;;;;;33.02;49.20;94363.41;5089079;28;20182;-45
2023/08/04 06:59:25;;;;;;;12.88;11.18;;;;;;;33.27;48.78;94370.22;5089692;28;20198;-45
2023/08/04 07:01:52;;;;;;;16.40;11.55;;;;;;;33.48;47.89;94359.34;5089993;28;20194;-44
2023/08/04 07:04:20;;;;;;;14.68;11.73;;;;;;;33.57;47.68;94358.38;5090037;28;20186;-45
2023/08/04 07:06:47;;;;;;;13.77;11.45;;;;;;;33.74;47.05;94360.50;5088999;28;20189;-45
2023/08/04 07:09:14;;;;;;;12.93;11.48;;;;;;;33.82;47.08;94351.09;5089224;28;20568;-45
2023/08/04 07:11:41;;;;;;;14.73;10.35;;;;;;;33.82;46.68;94359.03;5089187;28;20661;-44
2023/08/04 07:14:08;;;;;;;13.68;11.52;;;;;;;33.93;46.45;94357.78;5088921;28;20301;-43
2023/08/04 07:16:35;;;;;;;19.98;10.50;;;;;;;34.06;46.29;94359.69;5089147;28;20254;-45
2023/08/04 07:19:02;;;;;;;18.90;10.60;;;;;;;34.36;45.70;94354.88;5089256;28;20352;-46
2023/08/04 07:21:30;;;;;;;16.85;10.40;;;;;;;34.70;45.59;94363.25;5089227;28;20260;-45
2023/08/04 07:23:57;;;;;;;13.68;10.82;;;;;;;35.05;44.43;94360.94;5090059;28;20645;-44
2023/08/04 07:26:24;;;;;;;10.90;9.82;;;;;;;35.38;43.55;94364.19;5092819;28;20189;-43
2023/08/04 07:28:50;;;;;;;14.27;11.30;;;;;;;35.34;43.38;94362.44;5092753;28;21002;-46
2023/08/04 07:31:17;;;;;;;17.42;11.40;;;;;;;35.30;43.40;94350.81;5092610;28;20236;-44
2023/08/04 07:33:44;;;;;;;12.52;11.25;;;;;;;35.18;43.80;94356.66;5092389;28;20216;-45
2023/08/04 07:36:11;;;;;;;14.52;10.63;;;;;;;35.07;44.02;94344.72;5092665;28;20341;-45
2023/08/04 07:38:39;;;;;;;17.52;11.60;;;;;;;35.11;44.05;94356.31;5092571;28;20186;-44
2023/08/04 07:41:06;;;;;;;12.25;10.23;;;;;;;35.23;43.29;94356.53;5092898;28;20220;-44
2023/08/04 07:43:32;;;;;;;10.90;9.70;;;;;;;35.35;43.02;94346.16;5092525;28;20645;-45
2023/08/04 07:45:59;;;;;;;15.48;10.70;;;;;;;35.63;42.35;94348.72;5092352;28;20216;-43
2023/08/04 07:48:26;;;;;;;12.98;10.15;;;;;;;35.66;41.96;94351.53;5092358;28;20192;-44
2023/08/04 07:50:53;;;;;;;17.05;10.90;;;;;;;35.62;41.93;94352.47;5092014;28;20234;-43
2023/08/04 07:53:20;;;;;;;14.88;10.77;;;;;;;35.54;42.38;94345.25;5092294;28;20589;-44
2023/08/04 07:55:56;;;;;;;10.98;9.88;;;;;;;35.78;42.16;94345.69;5092063;28;20380;-44
2023/08/04 07:58:23;;;;;;;11.25;9.27;;;;;;;35.94;40.73;94354.06;5092274;28;20181;-45
2023/08/04 08:00:50;;;;;;;9.50;8.45;;;;;;;35.99;40.38;94350.50;5091931;28;20674;-43
2023/08/04 08:03:17;;;;;;;11.75;8.95;;;;;;;36.12;40.42;94341.63;5092182;28;20194;-44
2023/08/04 08:05:44;;;;;;;10.70;8.75;;;;;;;36.36;39.41;94350.03;5092195;28;20272;-44
2023/08/04 08:08:11;;;;;;;10.43;8.48;;;;;;;36.39;39.41;94348.63;5092159;28;20189;-43
2023/08/04 08:10:38;;;;;;;10.40;9.20;;;;;;;36.56;39.05;94343.38;5091849;28;20194;-45
2023/08/04 08:13:07;;;;;;;11.73;8.88;;;;;;;36.66;39.45;94340.44;5091770;28;20210;-45
2023/08/04 08:15:35;;;;;;;13.40;8.27;;;;;;;36.72;38.75;94340.28;5091677;28;20217;-43
2023/08/04 08:18:02;;;;;;;11.90;8.23;;;;;;;36.79;38.51;94352.06;5091946;28;20281;-45
2023/08/04 08:20:29;;;;;;;8.55;7.78;;;;;;;36.83;38.45;94338.88;5091805;28;20182;-45
2023/08/04 08:22:56;;;;;;;8.95;7.60;;;;;;;36.99;37.81;94340.00;5091768;28;20549;-46
2023/08/04 08:25:23;;;;;;;8.07;7.32;;;;;;;37.06;37.99;94335.00;5091584;28;20232;-44
2023/08/04 08:27:50;;;;;;;8.43;7.50;;;;;;;37.24;37.46;94337.66;5091855;28;20186;-45
2023/08/04 08:30:18;;;;;;;8.00;7.28;;;;;;;37.22;37.59;94338.00;5091570;28;20233;-45
2023/08/04 08:32:45;;;;;;;10.55;7.65;;;;;;;37.28;37.46;94335.94;5091273;28;20735;-45
2023/08/04 08:35:12;;;;;;;8.57;7.78;;;;;;;37.31;37.30;94346.00;5090346;28;20206;-46
2023/08/04 08:37:39;;;;;;;8.50;7.18;;;;;;;37.35;37.05;94337.03;5091303;28;20259;-44
2023/08/04 08:40:07;;;;;;;12.43;7.55;;;;;;;37.45;37.24;94337.84;5091803;28;20680;-45
2023/08/04 08:42:34;;;;;;;8.73;7.50;;;;;;;37.66;37.25;94342.19;5091214;28;20193;-45
2023/08/04 08:45:01;;;;;;;8.30;7.55;;;;;;;37.81;36.80;94332.88;5091136;28;20189;-44
2023/08/04 08:47:32;;;;;;;9.15;7.45;;;;;;;37.89;36.15;94331.31;5090949;28;20239;-43
2023/08/04 08:50:02;;;;;;;8.23;7.15;;;;;;;37.93;35.78;94324.25;5091268;28;20206;-44
2023/08/04 08:52:32;;;;;;;8.95;8.05;;;;;;;38.01;36.44;94328.78;5091660;28;20685;-45
2023/08/04 08:54:59;;;;;;;7.97;7.30;;;;;;;38.09;36.16;94324.50;5091560;28;20193;-44
2023/08/04 08:57:28;;;;;;;8.75;7.50;;;;;;;38.02;36.03;94319.66;5090796;28;20186;-45
2023/08/04 08:59:58;;;;;;;14.68;7.72;;;;;;;37.93;36.40;94318.13;5091069;28;20214;-44
2023/08/04 09:02:25;;;;;;;10.13;7.85;;;;;;;38.04;35.81;94317.47;5090900;28;20264;-45
2023/08/04 09:04:54;;;;;;;7.93;7.22;;;;;;;38.09;35.33;94322.63;5090984;28;20240;-45
2023/08/04 09:07:22;;;;;;;8.02;7.22;;;;;;;37.79;35.98;94305.75;5090823;28;20190;-45
2023/08/04 09:09:49;;;;;;;9.82;7.03;;;;;;;37.70;35.91;94296.16;5091073;28;20185;-44
2023/08/04 09:12:16;;;;;;;8.00;7.30;;;;;;;37.64;35.87;94303.56;5090776;28;20182;-44
2023/08/04 09:14:54;;;;;;;8.20;7.13;;;;;;;37.44;36.40;94304.25;5090735;28;20285;-45
2023/08/04 09:17:31;;;;;;;7.63;6.95;;;;;;;37.54;36.67;94307.38;5090742;28;20186;-45
2023/08/04 09:20:01;;;;;;;8.68;7.88;;;;;;;37.45;36.41;94303.16;5090668;28;20189;-44
2023/08/04 09:22:28;;;;;;;8.02;7.22;;;;;;;37.32;36.92;94305.66;5090413;28;20615;-44
2023/08/04 09:24:56;;;;;;;8.82;7.90;;;;;;;37.23;37.21;94307.56;5090588;28;20625;-43
2023/08/04 09:27:31;;;;;;;7.80;7.10;;;;;;;37.30;37.23;94299.06;5090256;28;20221;-43
2023/08/04 09:29:59;;;;;;;7.55;6.95;;;;;;;37.44;36.88;94297.03;5090178;28;20229;-45
2023/08/04 09:32:27;;;;;;;7.78;7.13;;;;;;;37.45;36.76;94292.47;5090179;28;20654;-43
2023/08/04 09:35:07;;;;;;;8.63;7.55;;;;;;;37.51;37.08;94289.31;5090301;28;20274;-45
2023/08/04 09:37:35;;;;;;;9.50;7.45;;;;;;;37.58;36.93;94297.63;5089909;28;20200;-44
2023/08/04 09:40:04;;;;;;;7.88;7.18;;;;;;;37.62;36.87;94290.56;5090603;28;20215;-44
2023/08/04 09:42:31;;;;;;;8.27;7.53;;;;;;;37.53;36.78;94291.69;5088646;28;20250;-45
2023/08/04 09:44:58;;;;;;;9.45;7.75;;;;;;;37.47;36.80;94280.38;5090148;28;20197;-45
2023/08/04 09:47:26;;;;;;;7.65;6.85;;;;;;;37.36;37.34;94276.47;5089569;28;20197;-45
2023/08/04 09:49:54;;;;;;;8.77;8.05;;;;;;;37.36;37.85;94287.13;5090209;28;20194;-45
2023/08/04 09:52:24;;;;;;;8.57;7.68;;;;;;;37.19;37.97;94276.50;5090267;28;20221;-45
2023/08/04 09:54:53;;;;;;;9.63;7.43;;;;;;;37.18;37.71;94278.38;5089965;28;20236;-45
2023/08/04 09:57:20;;;;;;;8.23;7.55;;;;;;;37.13;37.73;94270.50;5090465;28;20247;-45
2023/08/04 09:59:48;;;;;;;9.35;7.90;;;;;;;37.08;37.44;94271.47;5089944;28;20197;-44
2023/08/04 10:02:17;;;;;;;8.68;7.95;;;;;;;36.92;37.97;94276.50;5090016;28;20278;-44
2023/08/04 10:04:48;;;;;;;8.48;7.53;;;;;;;36.89;37.84;94266.44;5089948;28;20204;-46
2023/08/04 10:07:15;;;;;;;8.40;7.57;;;;;;;36.98;37.69;94261.13;5089874;28;20193;-44
2023/08/04 10:09:44;;;;;;;9.50;8.50;;;;;;;36.79;37.50;94264.09;5089799;28;20182;-44
2023/08/04 10:12:12;;;;;;;8.63;7.82;;;;;;;36.75;37.55;94260.50;5090019;28;20189;-45
2023/08/04 10:14:39;;;;;;;8.30;7.60;;;;;;;36.83;36.81;94262.38;5089346;28;20260;-44
2023/08/04 10:17:07;;;;;;;8.30;7.57;;;;;;;36.76;36.78;94261.25;5089862;28;20200;-45
2023/08/04 10:19:34;;;;;;;9.23;8.25;;;;;;;36.71;37.20;94264.88;5089562;28;20642;-46
2023/08/04 10:22:06;;;;;;;8.90;7.45;;;;;;;36.71;36.64;94264.88;5089487;28;20661;-46
2023/08/04 10:24:37;;;;;;;8.90;8.05;;;;;;;36.71;36.92;94261.44;5089352;28;20335;-45
2023/08/04 10:27:28;;;;;;;8.90;7.82;;;;;;;36.76;36.63;94259.38;5089933;28;20204;-45
2023/08/04 10:30:10;;;;;;;11.25;7.47;;;;;;;36.63;36.75;94255.00;5089425;28;20244;-46
2023/08/04 10:32:38;;;;;;;9.82;7.20;;;;;;;36.51;36.67;94252.16;5088937;28;20790;-44
2023/08/04 10:35:06;;;;;;;8.70;7.20;;;;;;;36.34;36.56;94253.66;5122507;28;20221;-43
2023/08/04 10:37:46;;;;;;;8.55;7.47;;;;;;;36.24;36.99;94243.31;5089812;28;20185;-45
2023/08/04 10:40:13;;;;;;;7.95;7.10;;;;;;;36.27;37.00;94252.53;5090809;28;20216;-44
2023/08/04 10:43:02;;;;;;;8.20;7.50;;;;;;;36.50;36.94;94253.25;5089416;28;20685;-44
2023/08/04 10:45:52;;;;;;;8.45;7.70;;;;;;;36.58;36.38;94239.94;5089774;28;20216;-45
2023/08/04 10:48:20;;;;;;;11.75;7.38;;;;;;;36.67;36.54;94231.94;5089690;28;20205;-45
2023/08/04 10:50:47;;;;;;;8.20;7.40;;;;;;;36.74;36.06;94228.81;5090160;28;20237;-45
2023/08/04 10:53:15;;;;;;;9.57;7.63;;;;;;;36.79;36.09;94236.63;5089843;28;20205;-44
2023/08/04 10:55:52;;;;;;;18.23;7.57;;;;;;;36.78;35.99;94232.41;5089506;28;20259;-45
2023/08/04 10:58:20;;;;;;;8.68;7.50;;;;;;;36.60;35.75;94234.28;5089492;28;20235;-45
2023/08/04 11:00:47;;;;;;;8.18;7.40;;;;;;;36.57;36.03;94226.91;5093823;28;20208;-44
2023/08/04 11:03:21;;;;;;;9.57;8.68;;;;;;;36.51;36.46;94233.50;5093403;28;20198;-46
2023/08/04 11:05:50;;;;;;;9.40;8.50;;;;;;;36.43;36.42;94221.72;5093466;28;20234;-46
2023/08/04 11:08:17;;;;;;;12.57;8.77;;;;;;;36.38;36.76;94221.88;5093001;28;20657;-46
2023/08/04 11:10:48;;;;;;;8.45;7.75;;;;;;;36.43;37.10;94224.38;5093373;28;20186;-43
2023/08/04 11:13:18;;;;;;;8.98;8.18;;;;;;;36.36;36.91;94232.06;5093028;28;20636;-44
2023/08/04 11:15:47;;;;;;;9.93;8.43;;;;;;;36.25;36.87;94206.81;5093300;28;20576;-45
2023/08/04 11:18:16;;;;;;;9.07;8.15;;;;;;;36.34;37.00;94221.69;5092913;28;20208;-45
2023/08/04 11:20:43;;;;;;;11.55;9.63;;;;;;;36.38;36.61;94224.53;5093032;28;20545;-44
2023/08/04 11:23:11;;;;;;;9.23;8.43;;;;;;;36.44;36.58;94223.28;5092744;28;20216;-45
2023/08/04 11:25:39;;;;;;;9.48;8.10;;;;;;;36.37;36.55;94215.75;5092994;28;20185;-44
2023/08/04 11:28:06;;;;;;;9.90;9.00;;;;;;;36.19;36.86;94227.47;5092792;28;20193;-43
2023/08/04 11:30:34;;;;;;;9.27;8.38;;;;;;;36.04;37.31;94225.25;5092593;28;20715;-44